• Join FlightAware (Why Join?)
  • Login
  • US Flag 
07:05PM EDT


 

Airport Tracker/Info


-or-


 

Live Flight TrackerFlight Track Log ✈ N789AM ✈ 29-Aug-2013 ✈ KPHN - KDXR

Flight Track Log - Related Links

Times and Time Zones

All times are in EDT time to prevent confusion due to time zone crossing. See the N789AM flight status page for this flight to view local times or setup timezone preferences in your user account.

Time Position Orientation Groundspeed Altitude Reporting Facility
EDT Latitude Longitude Course Direction KTS MPH feet Rate Location/Type
02:59PM 42.8350 -81.8064 100° East 140 161 10,000  Level Cleveland Center
03:00PM 42.8275 -81.7467 100° East 150 173 10,200 240 Climbing Cleveland Center
03:01PM 42.8197 -81.6900 101° East 150 173 10,500 240 Climbing Cleveland Center
03:02PM 42.8097 -81.6331 103° East 149 171 10,700 240 Climbing Cleveland Center
03:03PM 42.8019 -81.5736 100° East 149 171 11,000 240 Climbing Cleveland Center
03:04PM 42.7961 -81.5142 98° East 155 178 11,200 180 Climbing Cleveland Center
03:05PM 42.7861 -81.4544 103° East 155 178 11,400 60 Climbing Cleveland Center
03:06PM 42.7803 -81.3978 98° East 155 178 11,400  Level Cleveland Center
03:07PM 42.7703 -81.3356 102° East 165 190 11,400  Level Cleveland Center
03:08PM 42.7603 -81.2731 102° East 159 183 11,500  Climbing Cleveland Center
03:09PM 42.7544 -81.2222 99° East 159 183 11,500  Level Cleveland Center
03:10PM 42.7464 -81.1656 101° East 168 193 11,500 -60 Level Cleveland Center
03:11PM 42.7361 -81.0975 102° East 167 192 11,400  Descending Cleveland Center
03:12PM 42.7281 -81.0383 100° East 157 181 11,500  Climbing Cleveland Center
03:13PM 42.7200 -80.9761 100° East 162 186 11,500 -60 Level Cleveland Center
03:14PM 42.7119 -80.9167 100° East 162 186 11,400  Descending Cleveland Center
03:15PM 42.6994 -80.8486 104° East 162 186 11,500  Climbing Cleveland Center
03:16PM 42.6933 -80.7894 98° East 162 186 11,500  Level Cleveland Center
03:17PM 42.6831 -80.7272 103° East 162 186 11,500  Level Cleveland Center
03:18PM 42.6747 -80.6681 101° East 162 186 11,500  Level Cleveland Center
03:19PM 42.6667 -80.6058 100° East 162 186 11,500  Level Cleveland Center
03:20PM 42.6561 -80.5408 102° East 162 186 11,500  Level Cleveland Center
03:21PM 42.6478 -80.4844 101° East 162 186 11,500  Level Cleveland Center
03:22PM 42.6394 -80.4222 100° East 155 178 11,500  Level Cleveland Center
03:23PM 42.6331 -80.3603 98° East 160 184 11,500  Level Cleveland Center
03:24PM 42.6203 -80.3039 107° East 168 193 11,500  Level Cleveland Center
03:25PM 42.6139 -80.2447 98° East 163 188 11,500  Level Cleveland Center
03:26PM 42.6033 -80.1769 102° East 163 188 11,500  Level Cleveland Center
03:27PM 42.5928 -80.1206 104° East 162 186 11,500  Level Cleveland Center
03:28PM 42.5842 -80.0614 101° East 162 186 11,500  Level Cleveland Center
03:29PM 42.5756 -79.9994 101° East 162 186 11,500  Level Cleveland Center
03:30PM 42.5647 -79.9319 102° East 167 192 11,500  Level Cleveland Center
03:31PM 42.5561 -79.8728 101° East 167 192 11,500  Level Cleveland Center
03:32PM 42.5453 -79.8139 104° East 161 185 11,500  Level Cleveland Center
03:33PM 42.5364 -79.7519 101° East 161 185 11,500  Level Cleveland Center
03:34PM 42.5278 -79.6958 102° East 161 185 11,500  Level Cleveland Center
03:35PM 42.5208 -79.6339 99° East 161 185 11,500  Level Cleveland Center
03:36PM 42.5122 -79.5747 101° East 161 185 11,500  Level Cleveland Center
03:37PM 42.5033 -79.5158 102° East 161 185 11,500  Level Cleveland Center
03:38PM 42.4964 -79.4567 99° East 161 185 11,500  Level Cleveland Center
03:39PM 42.4875 -79.3978 102° East 161 185 11,500  Level Cleveland Center
03:40PM 42.4744 -79.3389 107° East 161 185 11,500  Level Cleveland Center
03:41PM 42.4653 -79.2800 102° East 161 185 11,500  Level Cleveland Center
03:42PM 42.4542 -79.2239 105° East 161 185 11,500  Level Cleveland Center
03:43PM 42.4431 -79.1622 104° East 161 185 11,500  Level Cleveland Center
03:44PM 42.4319 -79.1064 105° East 161 185 11,500  Level Cleveland Center
03:45PM 42.4250 -79.0444 99° East 161 185 11,500  Level Cleveland Center
03:46PM 42.4136 -78.9831 104° East 161 185 11,500  Level Cleveland Center
03:47PM 42.4044 -78.9242 102° East 161 185 11,500  Level Cleveland Center
03:48PM 42.3975 -78.8625 99° East 161 185 11,500  Level Cleveland Center
03:49PM 42.3881 -78.8036 102° East 161 185 11,500  Level Cleveland Center
03:50PM 42.3767 -78.7422 104° East 161 185 11,500  Level Cleveland Center
03:51PM 42.3675 -78.6833 102° East 161 185 11,500  Level Cleveland Center
03:52PM 42.3581 -78.6247 102° East 161 185 11,500  Level Cleveland Center
03:53PM 42.3489 -78.5661 102° East 161 185 11,500  Level Cleveland Center
03:54PM 42.3394 -78.5044 102° East 161 185 11,500  Level Cleveland Center
03:55PM 42.3278 -78.4431 104° East 161 185 11,500  Level Cleveland Center
03:56PM 42.3183 -78.3817 102° East 161 185 11,500  Level Cleveland Center
03:57PM 42.3067 -78.3231 105° East 161 185 11,500  Level Cleveland Center
03:58PM 42.2972 -78.2617 102° East 161 185 11,500  Level Cleveland Center
03:59PM 42.2856 -78.2003 104° East 161 185 11,500  Level Cleveland Center
04:00PM 42.2758 -78.1417 103° East 161 185 11,500  Level Cleveland Center
04:01PM 42.2642 -78.0806 104° East 161 185 11,500  Level Cleveland Center
04:02PM 42.2567 -78.0189 99° East 161 185 11,500  Level Cleveland Center
04:03PM 42.2447 -77.9578 105° East 161 185 11,500  Level Cleveland Center
04:04PM 42.2328 -77.8881 103° East 161 185 11,500  Level Cleveland Center
04:05PM 42.2231 -77.8297 103° East 161 185 11,500  Level Cleveland Center
04:06PM 42.2111 -77.7686 105° East 161 185 11,500  Level Cleveland Center
04:07PM 42.2014 -77.7072 102° East 161 185 11,500  Level Cleveland Center
04:09PM 42.1767 -77.5681 103° East 161 185 11,500  Level New York Center
04:10PM 42.1667 -77.4833 99° East 160 184 11,500  Level Toronto Center
04:11PM 42.1500 -77.4333 114° Southeast 170 196 11,500  Level Toronto Center
04:12PM 42.1333 -77.3667 109° East 170 196 11,500  Level Toronto Center
04:14PM 42.1228 -77.2631 98° East 169 194 11,500  Level New York Center
04:15PM 42.1097 -77.2003 106° East 169 194 11,500  Level New York Center
04:16PM 42.0983 -77.1406 104° East 169 194 11,500  Level New York Center
04:17PM 42.0869 -77.0781 104° East 169 194 11,500  Level New York Center
04:18PM 42.0758 -77.0153 103° East 169 194 11,500  Level New York Center
04:19PM 42.0644 -76.9528 104° East 169 194 11,500  Level New York Center
04:20PM 42.0550 -76.8961 103° East 169 194 11,500  Level New York Center
04:21PM 42.0436 -76.8336 104° East 169 194 11,500  Level New York Center
04:22PM 42.0322 -76.7711 104° East 164 189 11,500  Level New York Center
04:23PM 42.0206 -76.7086 104° East 164 189 11,500  Level New York Center
04:24PM 42.0092 -76.6492 104° East 164 189 11,500  Level New York Center
04:25PM 41.9975 -76.5867 104° East 164 189 11,500  Level New York Center
04:26PM 41.9858 -76.5269 105° East 164 189 11,500  Level New York Center
04:27PM 41.9761 -76.4675 102° East 164 189 11,500  Level New York Center
04:28PM 41.9647 -76.4053 104° East 164 189 11,500  Level New York Center
04:29PM 41.9489 -76.3425 109° East 170 196 11,500  Level New York Center
04:30PM 41.9369 -76.2831 105° East 170 196 11,500  Level New York Center
04:31PM 41.9292 -76.2294 101° East 165 190 11,500  Level New York Center
04:32PM 41.9153 -76.1669 107° East 165 190 11,500  Level New York Center
04:33PM 41.8972 -76.1069 112° Southeast 165 190 11,500  Level New York Center
04:34PM 41.8789 -76.0497 113° Southeast 165 190 11,500  Level New York Center
04:35PM 41.8583 -75.9953 117° Southeast 165 190 11,500  Level New York Center
04:36PM 41.8397 -75.9436 116° Southeast 165 190 11,500  Level New York Center
04:37PM 41.8194 -75.8836 114° Southeast 165 190 11,500  Level New York Center
04:38PM 41.7953 -75.8178 116° Southeast 165 190 11,500  Level New York Center
04:39PM 41.7728 -75.7603 118° Southeast 165 190 11,500  Level New York Center
04:40PM 41.7542 -75.7033 114° Southeast 165 190 11,500  Level New York Center
04:41PM 41.7336 -75.6464 116° Southeast 165 190 11,500  Level New York Center
04:42PM 41.7131 -75.5892 116° Southeast 165 190 11,500  Level New York Center
04:43PM 41.6944 -75.5378 116° Southeast 165 190 11,500  Level New York Center
04:44PM 41.6672 -75.4858 125° Southeast 165 190 11,500  Level New York Center
04:46PM 41.6092 -75.3764 125° Southeast 178 205 11,500  Level New York Center
04:47PM 41.6053 -75.3122 95° East 171 197 11,500  Level New York Center
04:48PM 41.6011 -75.2622 96° East 163 188 11,500  Level New York Center
04:49PM 41.5931 -75.2006 100° East 163 188 11,500 -180 Level New York Center
04:50PM 41.5850 -75.1336 99° East 163 188 11,200 -360 Descending New York Center
04:51PM 41.5725 -75.0319 99° East 174 200 10,700 -420 Descending Boston Center
04:52PM 41.5636 -74.9622 100° East 185 213 10,200 -480 Descending Boston Center
04:53PM 41.5567 -74.8953 98° East 185 213 9,800 -480 Descending Boston Center
04:54PM 41.5478 -74.8256 100° East 180 207 9,300 -480 Descending Boston Center
04:55PM 41.5389 -74.7586 100° East 180 207 8,900 -420 Descending Boston Center
04:56PM 41.5297 -74.6892 100° East 180 207 8,500 -420 Descending Boston Center
04:57PM 41.5228 -74.6222 98° East 180 207 8,100 -480 Descending Boston Center
04:58PM 41.5136 -74.5497 100° East 180 207 7,600 -480 Descending Boston Center
04:59PM 41.5044 -74.4914 102° East 180 207 7,200 -360 Descending Boston Center
05:00PM 41.4953 -74.4161 99° East 180 207 7,000 -180 Descending Boston Center
05:01PM 41.4881 -74.3578 99° East 180 207 6,900 -300 Descending Boston Center
05:02PM 41.4786 -74.2883 100° East 180 207 6,400 -480 Descending Boston Center
05:04PM 41.4500 -74.1667 107° East 184 212 5,600 -480 Descending New York TRACON
05:05PM 41.4333 -74.1000 108° East 181 208 5,100 -540 Descending New York TRACON
05:06PM 41.4167 -74.0500 114° Southeast 175 201 4,600 -540 Descending New York TRACON
05:07PM 41.4000 -73.9833 108° East 173 199 4,100 -480 Descending New York TRACON
05:08PM 41.3833 -73.9333 114° Southeast 175 201 3,700 -480 Descending New York TRACON
05:09PM 41.3667 -73.8667 108° East 183 211 3,200 -540 Descending New York TRACON
05:10PM 41.3500 -73.8000 108° East 185 213 2,700 -420 Descending New York TRACON
05:11PM 41.3167 -73.7333 124° Southeast 180 207 2,400 -120 Descending New York TRACON
05:12PM 41.3167 -73.6833 90° East 178 205 2,500  Climbing New York TRACON
05:13PM 41.3167 -73.6167 90° East 175 201 2,400  Descending New York TRACON
05:14PM 41.3333 -73.5833 56° Northeast 130 150 2,600 -360 Climbing New York TRACON
05:15PM 41.3500 -73.5500 56° Northeast 92 106 1,700 -660 Descending New York TRACON
05:16PM 41.3500 -73.5167 90° East 96 110 1,400 -360 Descending New York TRACON